createdAt,value
2018-05-08T00:00:22.433Z,999.71
2018-05-08T00:01:02.891Z,999.74
2018-05-08T00:01:43.376Z,999.75
2018-05-08T00:02:23.857Z,999.74
2018-05-08T00:03:04.339Z,999.73
2018-05-08T00:03:44.937Z,999.73
2018-05-08T00:04:25.477Z,999.74
2018-05-08T00:05:05.840Z,999.75
2018-05-08T00:05:46.326Z,999.74
2018-05-08T00:06:26.803Z,999.67
2018-05-08T00:07:07.285Z,999.68
2018-05-08T00:07:47.741Z,999.69
2018-05-08T00:08:28.280Z,999.67
2018-05-08T00:09:08.737Z,999.68
2018-05-08T00:09:49.258Z,999.68
2018-05-08T00:10:29.721Z,999.69
2018-05-08T00:11:10.215Z,999.69
2018-05-08T00:11:50.699Z,999.67
2018-05-08T00:12:31.168Z,999.65
2018-05-08T00:13:11.666Z,999.64
2018-05-08T00:13:52.168Z,999.66
2018-05-08T00:14:32.663Z,999.66
2018-05-08T00:15:13.106Z,999.65
2018-05-08T00:15:53.665Z,999.64
2018-05-08T00:16:34.115Z,999.63
2018-05-08T00:17:14.578Z,999.66
2018-05-08T00:17:55.092Z,999.66
2018-05-08T00:18:35.596Z,999.63
2018-05-08T00:19:16.124Z,999.64
2018-05-08T00:19:56.562Z,999.64
2018-05-08T00:20:37.092Z,999.59
2018-05-08T00:21:17.574Z,999.57
2018-05-08T00:21:58.118Z,999.58
2018-05-08T00:22:38.708Z,999.54
2018-05-08T00:23:19.205Z,999.58
2018-05-08T00:23:59.682Z,999.56
2018-05-08T00:24:40.180Z,999.55
2018-05-08T00:25:20.657Z,999.54
2018-05-08T00:26:01.144Z,999.57
2018-05-08T00:26:41.790Z,999.59
2018-05-08T00:27:22.259Z,999.56
2018-05-08T00:28:02.750Z,999.55
2018-05-08T00:28:43.232Z,999.58
2018-05-08T00:29:23.743Z,999.57
2018-05-08T00:30:04.268Z,999.53
2018-05-08T00:30:44.701Z,999.55
2018-05-08T00:31:25.261Z,999.52
2018-05-08T00:32:05.800Z,999.48
2018-05-08T00:32:46.278Z,999.47
2018-05-08T00:33:26.784Z,999.46
2018-05-08T00:34:07.252Z,999.43
2018-05-08T00:34:47.708Z,999.48
2018-05-08T00:35:28.176Z,999.44
2018-05-08T00:36:08.669Z,999.48
2018-05-08T00:36:49.165Z,999.51
2018-05-08T00:37:29.636Z,999.49
2018-05-08T00:38:10.124Z,999.5
2018-05-08T00:38:50.644Z,999.5
2018-05-08T00:39:31.099Z,999.47
2018-05-08T00:40:11.641Z,999.42
2018-05-08T00:40:52.131Z,999.44
2018-05-08T00:41:32.642Z,999.44
2018-05-08T00:42:13.147Z,999.44
2018-05-08T00:42:53.633Z,999.46
2018-05-08T00:43:34.124Z,999.45
2018-05-08T00:44:14.613Z,999.44
2018-05-08T00:44:55.110Z,999.43
2018-05-08T00:45:35.613Z,999.39
2018-05-08T00:46:16.171Z,999.44
2018-05-08T00:46:56.649Z,999.45
2018-05-08T00:47:37.091Z,999.43
2018-05-08T00:48:17.630Z,999.48
2018-05-08T00:48:58.098Z,999.43
2018-05-08T00:49:38.634Z,999.4
2018-05-08T00:50:19.084Z,999.43
2018-05-08T00:50:59.565Z,999.42
2018-05-08T00:51:40.077Z,999.42
2018-05-08T00:52:20.568Z,999.46
2018-05-08T00:53:01.108Z,999.47
2018-05-08T00:53:41.559Z,999.44
2018-05-08T00:54:22.026Z,999.43
2018-05-08T00:55:02.497Z,999.43
2018-05-08T00:55:43.008Z,999.44
2018-05-08T00:56:23.542Z,999.48
2018-05-08T00:57:04.021Z,999.43
2018-05-08T00:57:44.487Z,999.44
2018-05-08T00:58:24.967Z,999.45
2018-05-08T00:59:05.479Z,999.44
2018-05-08T00:59:46.002Z,999.45
2018-05-08T01:00:26.466Z,999.4
2018-05-08T01:01:06.973Z,999.45
2018-05-08T01:01:47.484Z,999.4
2018-05-08T01:02:27.987Z,999.43
2018-05-08T01:03:08.497Z,999.41
2018-05-08T01:03:48.987Z,999.44
2018-05-08T01:04:29.483Z,999.43
2018-05-08T01:05:09.916Z,999.39
2018-05-08T01:05:50.438Z,999.39
2018-05-08T01:06:30.909Z,999.36
2018-05-08T01:07:11.461Z,999.33
2018-05-08T01:07:51.926Z,999.34
2018-05-08T01:08:32.384Z,999.34
2018-05-08T01:09:12.890Z,999.34
2018-05-08T01:09:53.413Z,999.33
2018-05-08T01:10:33.868Z,999.31
2018-05-08T01:11:14.334Z,999.36
2018-05-08T01:11:54.835Z,999.35
2018-05-08T01:12:35.310Z,999.3
2018-05-08T01:13:15.797Z,999.32
2018-05-08T01:13:56.369Z,999.32
2018-05-08T01:14:36.952Z,999.33
2018-05-08T01:15:17.490Z,999.35
2018-05-08T01:15:57.899Z,999.34
2018-05-08T01:16:38.423Z,999.29
2018-05-08T01:17:18.843Z,999.33
2018-05-08T01:17:59.343Z,999.32
2018-05-08T01:18:39.854Z,999.27
2018-05-08T01:19:20.362Z,999.3
2018-05-08T01:20:00.869Z,999.33
2018-05-08T01:20:41.371Z,999.33
2018-05-08T01:21:21.771Z,999.35
2018-05-08T01:22:02.304Z,999.34
2018-05-08T01:22:42.825Z,999.34
2018-05-08T01:23:23.287Z,999.33
2018-05-08T01:24:03.808Z,999.34
2018-05-08T01:24:44.279Z,999.35
2018-05-08T01:25:24.786Z,999.3
2018-05-08T01:26:05.441Z,999.35
2018-05-08T01:26:46.057Z,999.35
2018-05-08T01:27:26.538Z,999.31
2018-05-08T01:28:07.014Z,999.33
2018-05-08T01:28:47.506Z,999.36
2018-05-08T01:29:28.031Z,999.32
2018-05-08T01:30:08.499Z,999.31
2018-05-08T01:30:48.984Z,999.35
2018-05-08T01:31:29.458Z,999.38
2018-05-08T01:32:09.950Z,999.35
2018-05-08T01:32:50.401Z,999.39
2018-05-08T01:33:30.908Z,999.35
2018-05-08T01:34:11.415Z,999.37
2018-05-08T01:34:51.899Z,999.35
2018-05-08T01:35:32.397Z,999.36
2018-05-08T01:36:12.899Z,999.39
2018-05-08T01:36:53.469Z,999.37
2018-05-08T01:37:33.953Z,999.36
2018-05-08T01:38:14.462Z,999.38
2018-05-08T01:38:54.944Z,999.36
2018-05-08T01:39:35.465Z,999.36
2018-05-08T01:40:15.948Z,999.31
2018-05-08T01:40:56.420Z,999.34
2018-05-08T01:41:36.911Z,999.36
2018-05-08T01:42:17.405Z,999.37
2018-05-08T01:42:57.911Z,999.35
2018-05-08T01:43:38.357Z,999.34
2018-05-08T01:44:18.852Z,999.35
2018-05-08T01:44:59.383Z,999.35
2018-05-08T01:45:39.859Z,999.34
2018-05-08T01:46:20.383Z,999.32
2018-05-08T01:47:00.795Z,999.34
2018-05-08T01:47:41.325Z,999.32
2018-05-08T01:48:21.822Z,999.36
2018-05-08T01:49:02.280Z,999.34
2018-05-08T01:49:42.749Z,999.31
2018-05-08T01:50:23.215Z,999.29
2018-05-08T01:51:03.728Z,999.33
2018-05-08T01:51:44.231Z,999.33
2018-05-08T01:52:24.699Z,999.34
2018-05-08T01:53:05.194Z,999.31
2018-05-08T01:53:45.654Z,999.31
2018-05-08T01:54:26.147Z,999.29
2018-05-08T01:55:06.629Z,999.26
2018-05-08T01:55:47.160Z,999.27
2018-05-08T01:56:27.618Z,999.27
2018-05-08T01:57:08.079Z,999.28
2018-05-08T01:57:48.579Z,999.3
2018-05-08T01:58:29.022Z,999.27
2018-05-08T01:59:09.580Z,999.3
2018-05-08T01:59:50.021Z,999.28
2018-05-08T02:00:30.522Z,999.32
2018-05-08T02:01:11.023Z,999.27
2018-05-08T02:01:51.489Z,999.27
2018-05-08T02:02:32.274Z,999.27
2018-05-08T02:03:12.772Z,999.26
2018-05-08T02:03:53.269Z,999.27
2018-05-08T02:04:33.773Z,999.24
2018-05-08T02:05:14.232Z,999.24
2018-05-08T02:05:54.750Z,999.22
2018-05-08T02:06:35.246Z,999.24
2018-05-08T02:07:15.700Z,999.22
2018-05-08T02:07:56.168Z,999.27
2018-05-08T02:08:36.633Z,999.22
2018-05-08T02:09:17.176Z,999.2
2018-05-08T02:09:57.641Z,999.24
2018-05-08T02:10:38.102Z,999.18
2018-05-08T02:11:18.616Z,999.22
2018-05-08T02:11:59.077Z,999.2
2018-05-08T02:12:39.605Z,999.21
2018-05-08T02:13:20.154Z,999.2
2018-05-08T02:14:00.655Z,999.22
2018-05-08T02:14:41.098Z,999.16
2018-05-08T02:15:21.548Z,999.17
2018-05-08T02:16:02.059Z,999.17
2018-05-08T02:16:42.559Z,999.14
2018-05-08T02:17:23.054Z,999.16
2018-05-08T02:18:03.530Z,999.15
2018-05-08T02:18:44.019Z,999.15
2018-05-08T02:19:24.465Z,999.21
2018-05-08T02:20:05.012Z,999.19
2018-05-08T02:20:45.423Z,999.21
2018-05-08T02:21:25.936Z,999.2
2018-05-08T02:22:06.420Z,999.18
2018-05-08T02:22:46.926Z,999.2
2018-05-08T02:23:27.353Z,999.16
2018-05-08T02:24:07.855Z,999.18
2018-05-08T02:24:48.338Z,999.2
2018-05-08T02:25:28.840Z,999.2
2018-05-08T02:26:09.362Z,999.2
2018-05-08T02:26:49.807Z,999.21
2018-05-08T02:27:30.328Z,999.23
2018-05-08T02:28:10.795Z,999.18
2018-05-08T02:28:51.321Z,999.23
2018-05-08T02:29:31.751Z,999.25
2018-05-08T02:30:12.250Z,999.22
2018-05-08T02:30:52.726Z,999.24
2018-05-08T02:31:33.181Z,999.22
2018-05-08T02:32:13.735Z,999.19
2018-05-08T02:32:54.216Z,999.2
2018-05-08T02:33:34.701Z,999.19
2018-05-08T02:34:15.181Z,999.16
2018-05-08T02:34:55.669Z,999.14
2018-05-08T02:35:36.150Z,999.17
2018-05-08T02:36:16.597Z,999.15
2018-05-08T02:36:57.071Z,999.1
2018-05-08T02:37:37.617Z,999.07
2018-05-08T02:38:18.089Z,999.13
2018-05-08T02:38:58.631Z,999.04
2018-05-08T02:39:39.059Z,999.08
2018-05-08T02:40:19.528Z,999.08
2018-05-08T02:41:00.012Z,999.05
2018-05-08T02:41:40.554Z,999.12
2018-05-08T02:42:21.020Z,999.06
2018-05-08T02:43:01.475Z,999.04
2018-05-08T02:43:41.989Z,999.07
2018-05-08T02:44:22.450Z,999.05
2018-05-08T02:45:02.964Z,999.12
2018-05-08T02:45:43.456Z,999.09
2018-05-08T02:46:23.915Z,999.17
2018-05-08T02:47:04.441Z,999.15
2018-05-08T02:47:44.906Z,999.15
2018-05-08T02:48:25.385Z,999.13
2018-05-08T02:49:05.860Z,999.14
2018-05-08T02:49:46.356Z,999.12
2018-05-08T02:50:26.804Z,999.11
2018-05-08T02:51:07.323Z,999.1
2018-05-08T02:51:47.796Z,999.08
2018-05-08T02:52:28.303Z,999.17
2018-05-08T02:53:08.764Z,999.1
2018-05-08T02:53:49.253Z,999.14
2018-05-08T02:54:29.751Z,999.09
2018-05-08T02:55:10.212Z,999.12
2018-05-08T02:55:50.709Z,999.14
2018-05-08T02:56:31.199Z,999.11
2018-05-08T02:57:11.701Z,999.11
2018-05-08T02:57:52.159Z,999.12
2018-05-08T02:58:32.647Z,999.09
2018-05-08T02:59:13.136Z,999.12
2018-05-08T02:59:53.639Z,999.13
2018-05-08T03:00:34.124Z,999.11
2018-05-08T03:01:14.594Z,999.1
2018-05-08T03:01:55.081Z,999.09
2018-05-08T03:02:35.579Z,999.1
2018-05-08T03:03:16.065Z,999.07
2018-05-08T03:03:56.545Z,999.06
2018-05-08T03:04:36.992Z,999.08
2018-05-08T03:05:17.481Z,999.08
2018-05-08T03:05:57.978Z,999.09
2018-05-08T03:06:38.525Z,999.07
2018-05-08T03:07:19.002Z,999.09
2018-05-08T03:07:59.486Z,999.12
2018-05-08T03:08:39.927Z,999.08
2018-05-08T03:09:20.463Z,999.03
2018-05-08T03:10:00.927Z,999.06
2018-05-08T03:10:41.406Z,999.05
2018-05-08T03:11:21.903Z,999.11
2018-05-08T03:12:02.383Z,999.08
2018-05-08T03:12:42.838Z,999.11
2018-05-08T03:13:23.341Z,999.11
2018-05-08T03:14:03.850Z,999.1
2018-05-08T03:14:44.326Z,999.14
2018-05-08T03:15:24.804Z,999.12
2018-05-08T03:16:05.265Z,999.1
2018-05-08T03:16:45.789Z,999.12
2018-05-08T03:17:26.232Z,999.12
2018-05-08T03:18:06.731Z,999.13
2018-05-08T03:18:47.232Z,999.15
2018-05-08T03:19:27.728Z,999.13
2018-05-08T03:20:08.214Z,999.12
2018-05-08T03:20:48.753Z,999.08
2018-05-08T03:21:29.214Z,999.13
2018-05-08T03:22:09.775Z,999.15
2018-05-08T03:22:50.201Z,999.13
2018-05-08T03:23:30.760Z,999.15
2018-05-08T03:24:11.222Z,999.19
2018-05-08T03:24:51.655Z,999.18
2018-05-08T03:25:32.124Z,999.12
2018-05-08T03:26:12.685Z,999.09
2018-05-08T03:26:53.160Z,999.15
2018-05-08T03:27:33.707Z,999.19
2018-05-08T03:28:14.140Z,999.17
2018-05-08T03:28:54.610Z,999.13
2018-05-08T03:29:35.083Z,999.14
2018-05-08T03:30:15.594Z,999.17
2018-05-08T03:30:56.080Z,999.15
2018-05-08T03:31:36.562Z,999.12
2018-05-08T03:32:17.061Z,999.08
2018-05-08T03:32:57.511Z,999.11
2018-05-08T03:33:38.029Z,999.14
2018-05-08T03:34:18.544Z,999.16
2018-05-08T03:34:59.061Z,999.14
2018-05-08T03:35:39.523Z,999.15
2018-05-08T03:36:20.017Z,999.1
2018-05-08T03:37:00.645Z,999.15
2018-05-08T03:37:41.145Z,999.09
2018-05-08T03:38:21.568Z,999.1
2018-05-08T03:39:02.040Z,999.13
2018-05-08T03:39:42.545Z,999.1
2018-05-08T03:40:22.969Z,999.09
2018-05-08T03:41:03.469Z,999.14
2018-05-08T03:41:43.952Z,999.09
2018-05-08T03:42:24.438Z,999.1
2018-05-08T03:43:04.924Z,999.09
2018-05-08T03:43:45.506Z,999.12
2018-05-08T03:44:25.999Z,999.11
2018-05-08T03:45:06.469Z,999.14
2018-05-08T03:45:46.920Z,999.09
2018-05-08T03:46:27.413Z,999.1
2018-05-08T03:47:07.873Z,999.09
2018-05-08T03:47:48.377Z,999.12
2018-05-08T03:48:28.897Z,999.16
2018-05-08T03:49:09.382Z,999.19
2018-05-08T03:49:49.835Z,999.16
2018-05-08T03:50:30.339Z,999.15
2018-05-08T03:51:10.792Z,999.18
2018-05-08T03:51:51.275Z,999.14
2018-05-08T03:52:31.807Z,999.21
2018-05-08T03:53:12.555Z,999.17
2018-05-08T03:53:53.049Z,999.18
2018-05-08T03:54:33.507Z,999.2
2018-05-08T03:55:14.032Z,999.2
2018-05-08T03:55:54.540Z,999.22
2018-05-08T03:56:34.999Z,999.15
2018-05-08T03:57:15.464Z,999.19
2018-05-08T03:57:55.958Z,999.17
2018-05-08T03:58:36.450Z,999.21
2018-05-08T03:59:16.929Z,999.2
2018-05-08T03:59:57.447Z,999.17
2018-05-08T04:00:37.905Z,999.16
2018-05-08T04:01:18.422Z,999.16
2018-05-08T04:01:58.895Z,999.17
2018-05-08T04:02:39.412Z,999.2
2018-05-08T04:03:19.849Z,999.18
2018-05-08T04:04:00.323Z,999.17
2018-05-08T04:04:40.819Z,999.16
2018-05-08T04:05:21.437Z,999.17
2018-05-08T04:06:02.032Z,999.17
2018-05-08T04:06:42.496Z,999.15
2018-05-08T04:07:22.956Z,999.18
2018-05-08T04:08:03.427Z,999.21
2018-05-08T04:08:44.002Z,999.19
2018-05-08T04:09:24.408Z,999.16
2018-05-08T04:10:04.912Z,999.18
2018-05-08T04:10:45.442Z,999.16
2018-05-08T04:11:25.898Z,999.21
2018-05-08T04:12:06.402Z,999.2
2018-05-08T04:12:46.882Z,999.19
2018-05-08T04:13:27.382Z,999.2
2018-05-08T04:14:07.886Z,999.19
2018-05-08T04:14:48.364Z,999.16
2018-05-08T04:15:28.867Z,999.21
2018-05-08T04:16:09.369Z,999.2
2018-05-08T04:16:49.850Z,999.2
2018-05-08T04:17:30.360Z,999.15
2018-05-08T04:18:10.856Z,999.15
2018-05-08T04:18:51.308Z,999.15
2018-05-08T04:19:31.778Z,999.18
2018-05-08T04:20:12.337Z,999.17
2018-05-08T04:20:52.815Z,999.14
2018-05-08T04:21:33.323Z,999.16
2018-05-08T04:22:13.852Z,999.17
2018-05-08T04:22:54.328Z,999.1
2018-05-08T04:23:34.814Z,999.07
2018-05-08T04:24:15.301Z,999.12
2018-05-08T04:24:55.921Z,999.1
2018-05-08T04:25:36.423Z,999.14
2018-05-08T04:26:16.981Z,999.1
2018-05-08T04:26:57.454Z,999.14
2018-05-08T04:27:37.903Z,999.1
2018-05-08T04:28:18.471Z,999.11
2018-05-08T04:28:58.946Z,999.11
2018-05-08T04:29:39.470Z,999.1
2018-05-08T04:30:19.955Z,999.06
2018-05-08T04:31:00.410Z,999.1
2018-05-08T04:31:40.941Z,999.13
2018-05-08T04:32:21.391Z,999.09
2018-05-08T04:33:01.907Z,999.15
2018-05-08T04:33:42.386Z,999.14
2018-05-08T04:34:22.940Z,999.05
2018-05-08T04:35:03.560Z,999.11
2018-05-08T04:35:48.819Z,999.06
2018-05-08T04:37:42.052Z,999.06
2018-05-08T04:38:22.529Z,999.1
2018-05-08T04:39:03.059Z,999.14
2018-05-08T04:39:43.576Z,999.09
2018-05-08T04:40:24.100Z,999.11
2018-05-08T04:41:04.595Z,999.11
2018-05-08T04:41:45.092Z,999.13
2018-05-08T04:42:25.570Z,999.1
2018-05-08T04:43:06.070Z,999.14
2018-05-08T04:43:46.584Z,999.14
2018-05-08T04:44:27.059Z,999.15
2018-05-08T04:45:07.561Z,999.08
2018-05-08T04:45:48.062Z,999.1
2018-05-08T04:46:28.527Z,999.11
2018-05-08T04:47:09.026Z,999.08
2018-05-08T04:47:50.375Z,999.16
2018-05-08T04:48:30.917Z,999.13
2018-05-08T04:49:12.509Z,999.09
2018-05-08T04:49:53.289Z,999.07
2018-05-08T04:50:33.911Z,999.11
2018-05-08T04:51:14.321Z,999.08
2018-05-08T04:51:54.829Z,999.13
2018-05-08T04:52:35.365Z,999.16
2018-05-08T04:53:15.826Z,999.12
2018-05-08T04:53:56.371Z,999.12
2018-05-08T04:54:36.814Z,999.14
2018-05-08T04:55:17.285Z,999.12
2018-05-08T04:55:57.871Z,999.15
2018-05-08T04:56:38.238Z,999.12
2018-05-08T04:57:18.734Z,999.13
2018-05-08T04:57:59.287Z,999.15
2018-05-08T04:58:39.877Z,999.14
2018-05-08T04:59:20.665Z,999.15
2018-05-08T05:00:01.209Z,999.16
2018-05-08T05:00:41.676Z,999.18
2018-05-08T05:01:22.139Z,999.22
2018-05-08T05:02:02.656Z,999.15
2018-05-08T05:02:43.240Z,999.18
2018-05-08T05:03:23.817Z,999.15
2018-05-08T05:04:04.279Z,999.13
2018-05-08T05:04:44.787Z,999.17
2018-05-08T05:05:25.352Z,999.15
2018-05-08T05:06:06.206Z,999.13
2018-05-08T05:06:46.632Z,999.13
2018-05-08T05:07:27.066Z,999.16
2018-05-08T05:08:07.661Z,999.11
2018-05-08T05:08:48.323Z,999.17
2018-05-08T05:09:28.772Z,999.09
2018-05-08T05:10:09.262Z,999.16
2018-05-08T05:10:49.732Z,999.14
2018-05-08T05:11:30.298Z,999.16
2018-05-08T05:12:10.809Z,999.16
2018-05-08T05:12:51.302Z,999.18
2018-05-08T05:13:31.731Z,999.13
2018-05-08T05:14:12.249Z,999.13
2018-05-08T05:14:52.713Z,999.19
2018-05-08T05:15:33.282Z,999.18
2018-05-08T05:16:14.360Z,999.23
2018-05-08T05:16:54.851Z,999.19
2018-05-08T05:17:35.347Z,999.19
2018-05-08T05:18:15.812Z,999.21
2018-05-08T05:18:56.311Z,999.17
2018-05-08T05:19:36.834Z,999.15
2018-05-08T05:20:17.295Z,999.19
2018-05-08T05:20:57.792Z,999.24
2018-05-08T05:21:38.280Z,999.24
2018-05-08T05:22:18.794Z,999.2
2018-05-08T05:22:59.309Z,999.15
2018-05-08T05:23:39.808Z,999.19
2018-05-08T05:24:20.363Z,999.24
2018-05-08T05:25:00.825Z,999.16
2018-05-08T05:25:41.322Z,999.25
2018-05-08T05:26:21.799Z,999.15
2018-05-08T05:27:02.331Z,999.16
2018-05-08T05:27:42.830Z,999.14
2018-05-08T05:28:23.306Z,999.17
2018-05-08T05:29:03.756Z,999.14
2018-05-08T05:29:44.247Z,999.15
2018-05-08T05:30:24.744Z,999.14
2018-05-08T05:31:05.209Z,999.18
2018-05-08T05:31:45.747Z,999.15
2018-05-08T05:32:26.260Z,999.14
2018-05-08T05:33:06.746Z,999.17
2018-05-08T05:33:47.208Z,999.2
2018-05-08T05:34:27.689Z,999.21
2018-05-08T05:35:08.217Z,999.21
2018-05-08T05:35:48.682Z,999.17
2018-05-08T05:36:29.173Z,999.18
2018-05-08T05:37:09.756Z,999.17
2018-05-08T05:37:50.242Z,999.18
2018-05-08T05:38:30.724Z,999.2
2018-05-08T05:39:11.210Z,999.17
2018-05-08T05:39:51.699Z,999.22
2018-05-08T05:40:32.252Z,999.2
2018-05-08T05:41:12.717Z,999.12
2018-05-08T05:41:53.219Z,999.15
2018-05-08T05:42:33.717Z,999.14
2018-05-08T05:43:14.209Z,999.17
2018-05-08T05:43:54.675Z,999.12
2018-05-08T05:44:35.169Z,999.11
2018-05-08T05:45:15.695Z,999.09
2018-05-08T05:45:56.208Z,999.08
2018-05-08T05:46:36.684Z,999.15
2018-05-08T05:47:17.164Z,999.11
2018-05-08T05:47:57.641Z,999.13
2018-05-08T05:48:38.143Z,999.1
2018-05-08T05:49:18.614Z,999.13
2018-05-08T05:49:59.166Z,999.11
2018-05-08T05:50:39.614Z,999.14
2018-05-08T05:51:20.070Z,999.07
2018-05-08T05:52:00.564Z,999.08
2018-05-08T05:52:41.041Z,999.03
2018-05-08T05:53:21.672Z,999.04
2018-05-08T05:54:02.011Z,999.03
2018-05-08T05:54:42.505Z,999.05
2018-05-08T05:55:22.997Z,999.09
2018-05-08T05:56:03.538Z,999.05
2018-05-08T05:56:44.004Z,999.1
2018-05-08T05:57:24.532Z,999.04
2018-05-08T05:58:04.992Z,999.03
2018-05-08T05:58:45.442Z,999.05
2018-05-08T05:59:25.938Z,999.01
2018-05-08T06:00:06.488Z,998.99
2018-05-08T06:00:46.966Z,998.99
2018-05-08T06:01:27.396Z,999
2018-05-08T06:02:07.912Z,998.94
2018-05-08T06:02:48.470Z,998.95
2018-05-08T06:03:28.918Z,998.93
2018-05-08T06:04:09.430Z,998.92
2018-05-08T06:04:49.885Z,998.93
2018-05-08T06:05:30.421Z,998.96
2018-05-08T06:06:10.881Z,998.94
2018-05-08T06:06:51.323Z,998.92
2018-05-08T06:07:31.834Z,998.97
2018-05-08T06:08:12.293Z,998.93
2018-05-08T06:08:52.756Z,998.98
2018-05-08T06:09:33.278Z,998.94
2018-05-08T06:10:13.776Z,998.93
2018-05-08T06:10:54.282Z,998.93
2018-05-08T06:11:34.752Z,998.98
2018-05-08T06:12:15.267Z,998.94
2018-05-08T06:12:55.763Z,998.96
2018-05-08T06:13:36.253Z,998.95
2018-05-08T06:14:16.721Z,998.96
2018-05-08T06:14:57.203Z,998.94
2018-05-08T06:15:37.701Z,998.91
2018-05-08T06:16:18.201Z,998.99
2018-05-08T06:16:58.660Z,998.93
2018-05-08T06:17:39.161Z,998.91
2018-05-08T06:18:19.796Z,998.91
2018-05-08T06:19:00.192Z,998.87
2018-05-08T06:19:40.636Z,998.85
2018-05-08T06:20:21.104Z,998.92
2018-05-08T06:21:01.588Z,998.92
2018-05-08T06:21:42.097Z,998.86
2018-05-08T06:22:22.614Z,998.88
2018-05-08T06:23:03.129Z,998.84
2018-05-08T06:23:43.583Z,998.9
2018-05-08T06:24:24.108Z,998.87
2018-05-08T06:25:04.605Z,998.83
2018-05-08T06:25:45.048Z,998.84
2018-05-08T06:26:25.572Z,998.81
2018-05-08T06:27:06.033Z,998.82
2018-05-08T06:27:46.542Z,998.81
2018-05-08T06:28:27.037Z,998.79
2018-05-08T06:29:07.496Z,998.79
2018-05-08T06:29:48.035Z,998.8
2018-05-08T06:30:28.461Z,998.8
2018-05-08T06:31:08.974Z,998.78
2018-05-08T06:31:49.445Z,998.8
2018-05-08T06:32:29.988Z,998.8
2018-05-08T06:33:10.446Z,998.79
2018-05-08T06:33:50.978Z,998.83
2018-05-08T06:34:31.441Z,998.83
2018-05-08T06:35:12.093Z,998.78
2018-05-08T06:35:52.549Z,998.82
2018-05-08T06:36:33.053Z,998.8
2018-05-08T06:37:13.494Z,998.79
2018-05-08T06:37:54.010Z,998.79
2018-05-08T06:38:34.479Z,998.8
2018-05-08T06:39:15.112Z,998.79
2018-05-08T06:39:55.568Z,998.8
2018-05-08T06:40:36.005Z,998.85
2018-05-08T06:41:16.563Z,998.85
2018-05-08T06:41:56.960Z,998.76
2018-05-08T06:42:37.532Z,998.71
2018-05-08T06:43:18.004Z,998.74
2018-05-08T06:43:58.554Z,998.8
2018-05-08T06:44:39.025Z,998.8
2018-05-08T06:45:19.497Z,998.74
2018-05-08T06:45:59.978Z,998.78
2018-05-08T06:46:40.581Z,998.77
2018-05-08T06:47:20.981Z,998.81
2018-05-08T06:48:01.466Z,998.75
2018-05-08T06:48:41.983Z,998.77
2018-05-08T06:49:22.430Z,998.81
2018-05-08T06:50:02.921Z,998.81
2018-05-08T06:50:43.434Z,998.76
2018-05-08T06:51:23.850Z,998.77
2018-05-08T06:52:04.370Z,998.81
2018-05-08T06:52:44.814Z,998.83
2018-05-08T06:53:25.328Z,998.85
2018-05-08T06:54:05.830Z,998.87
2018-05-08T06:54:46.380Z,998.83
2018-05-08T06:55:26.905Z,998.74
2018-05-08T06:56:07.332Z,998.82
2018-05-08T06:56:47.834Z,998.8
2018-05-08T06:57:28.308Z,998.86
2018-05-08T06:58:10.613Z,998.79
2018-05-08T06:58:51.119Z,998.75
2018-05-08T06:59:31.596Z,998.75
2018-05-08T07:00:12.440Z,998.73
2018-05-08T07:00:53.127Z,998.72
2018-05-08T07:01:33.262Z,998.82
2018-05-08T07:02:13.759Z,998.77
2018-05-08T07:02:54.243Z,998.72
2018-05-08T07:03:38.638Z,998.71
2018-05-08T07:04:19.152Z,998.72
2018-05-08T07:04:59.801Z,998.72
2018-05-08T07:05:40.316Z,998.65
2018-05-08T07:06:20.797Z,998.67
2018-05-08T07:07:01.281Z,998.61
2018-05-08T07:07:41.827Z,998.69
2018-05-08T07:08:22.373Z,998.63
2018-05-08T07:09:02.872Z,998.67
2018-05-08T07:09:43.300Z,998.74
2018-05-08T07:10:23.753Z,998.66
2018-05-08T07:11:04.241Z,998.75
2018-05-08T07:11:44.744Z,998.62
2018-05-08T07:12:25.227Z,998.66
2018-05-08T07:13:05.722Z,998.68
2018-05-08T07:13:46.231Z,998.82
2018-05-08T07:14:26.751Z,998.73
2018-05-08T07:15:07.242Z,998.72
2018-05-08T07:15:47.947Z,998.73
2018-05-08T07:16:28.257Z,998.77
2018-05-08T07:17:08.899Z,998.75
2018-05-08T07:17:49.709Z,998.77
2018-05-08T07:18:30.336Z,998.73
2018-05-08T07:19:10.783Z,998.69
2018-05-08T07:19:51.305Z,998.7
2018-05-08T07:20:31.816Z,998.65
2018-05-08T07:21:12.303Z,998.73
2018-05-08T07:21:52.791Z,998.82
2018-05-08T07:22:33.380Z,998.84
2018-05-08T07:23:13.846Z,998.81
2018-05-08T07:23:54.404Z,998.77
2018-05-08T07:24:34.941Z,998.73
2018-05-08T07:25:15.434Z,998.78
2018-05-08T07:25:55.979Z,998.7
2018-05-08T07:26:36.436Z,998.67
2018-05-08T07:27:17.267Z,998.72
2018-05-08T07:27:57.862Z,998.65
2018-05-08T07:28:38.337Z,998.66
2018-05-08T07:29:18.810Z,998.7
2018-05-08T07:29:59.424Z,998.64
2018-05-08T07:30:39.852Z,998.63
2018-05-08T07:31:20.412Z,998.6
2018-05-08T07:32:01.002Z,998.64
2018-05-08T07:32:41.503Z,998.61
2018-05-08T07:33:22.016Z,998.67
2018-05-08T07:34:02.533Z,998.64
2018-05-08T07:34:43.059Z,998.63
2018-05-08T07:35:23.519Z,998.62
2018-05-08T07:36:04.163Z,998.58
2018-05-08T07:36:44.592Z,998.63
2018-05-08T07:37:28.893Z,998.64
2018-05-08T07:38:09.372Z,998.63
2018-05-08T07:38:49.886Z,998.58
2018-05-08T07:39:30.541Z,998.64
2018-05-08T07:40:11.089Z,998.6
2018-05-08T07:40:51.676Z,998.66
2018-05-08T07:41:32.359Z,998.64
2018-05-08T07:42:12.955Z,998.54
2018-05-08T07:42:53.327Z,998.58
2018-05-08T07:43:33.811Z,998.56
2018-05-08T07:44:16.485Z,998.57
2018-05-08T07:44:57.395Z,998.56
2018-05-08T07:45:38.525Z,998.53
2018-05-08T07:46:19.031Z,998.55
2018-05-08T07:46:59.631Z,998.54
2018-05-08T07:47:40.467Z,998.55
2018-05-08T07:48:21.572Z,998.52
2018-05-08T07:49:02.068Z,998.49
2018-05-08T07:49:42.618Z,998.5
2018-05-08T07:50:23.139Z,998.49
2018-05-08T07:51:03.593Z,998.47
2018-05-08T07:51:44.135Z,998.51
2018-05-08T07:52:25.250Z,998.51
2018-05-08T07:53:05.489Z,998.55
2018-05-08T07:53:46.093Z,998.52
2018-05-08T07:54:26.553Z,998.48
2018-05-08T07:55:07.009Z,998.45
2018-05-08T07:55:47.532Z,998.45
2018-05-08T07:56:28.013Z,998.54
2018-05-08T07:57:08.534Z,998.55
2018-05-08T07:57:49.011Z,998.52
2018-05-08T07:58:29.503Z,998.45
2018-05-08T07:59:10.053Z,998.48
2018-05-08T07:59:50.548Z,998.51
2018-05-08T08:00:31.048Z,998.45
2018-05-08T08:01:11.545Z,998.51
2018-05-08T08:01:52.013Z,998.49
2018-05-08T08:02:32.506Z,998.57
2018-05-08T08:03:13.023Z,998.49
2018-05-08T08:03:53.481Z,998.52
2018-05-08T08:04:33.972Z,998.57
2018-05-08T08:05:14.477Z,998.54
2018-05-08T08:05:55.051Z,998.61
2018-05-08T08:06:35.558Z,998.46
2018-05-08T08:07:16.095Z,998.49
2018-05-08T08:07:56.588Z,998.48
2018-05-08T08:08:37.022Z,998.45
2018-05-08T08:09:17.532Z,998.45
2018-05-08T08:09:58.057Z,998.54
2018-05-08T08:10:38.651Z,998.47
2018-05-08T08:11:19.075Z,998.43
2018-05-08T08:11:59.564Z,998.52
2018-05-08T08:12:40.091Z,998.55
2018-05-08T08:13:20.751Z,998.42
2018-05-08T08:14:01.227Z,998.43
2018-05-08T08:14:41.953Z,998.64
2018-05-08T08:15:23.131Z,998.41
2018-05-08T08:16:03.452Z,998.45
2018-05-08T08:16:43.943Z,998.43
2018-05-08T08:17:24.407Z,998.33
2018-05-08T08:18:05.057Z,998.35
2018-05-08T08:18:45.549Z,998.47
2018-05-08T08:19:26.053Z,998.5
2018-05-08T08:20:06.557Z,998.37
2018-05-08T08:20:47.104Z,998.4
2018-05-08T08:21:27.521Z,998.38
2018-05-08T08:22:08.052Z,998.42
2018-05-08T08:22:48.499Z,998.44
2018-05-08T08:23:29.031Z,998.49
2018-05-08T08:24:09.517Z,998.32
2018-05-08T08:24:50.097Z,998.38
2018-05-08T08:25:30.548Z,998.27
2018-05-08T08:26:11.104Z,998.35
2018-05-08T08:26:51.552Z,998.34
2018-05-08T08:27:32.047Z,998.34
2018-05-08T08:28:12.967Z,998.29